sensor_id;sensor_type;location;lat;lon;timestamp;temperature;humidity
1568;DHT22;777;47.156;8.326;2023-07-13T00:01:04;17.00;99.90
1568;DHT22;777;47.156;8.326;2023-07-13T00:03:32;17.10;99.90
1568;DHT22;777;47.156;8.326;2023-07-13T00:06:01;17.10;99.90
1568;DHT22;777;47.156;8.326;2023-07-13T00:08:30;17.10;99.90
1568;DHT22;777;47.156;8.326;2023-07-13T00:10:58;17.00;99.90
1568;DHT22;777;47.156;8.326;2023-07-13T00:13:27;17.20;99.90
1568;DHT22;777;47.156;8.326;2023-07-13T00:15:54;17.10;99.90
1568;DHT22;777;47.156;8.326;2023-07-13T00:18:22;17.20;99.90
1568;DHT22;777;47.156;8.326;2023-07-13T00:20:49;17.30;99.90
1568;DHT22;777;47.156;8.326;2023-07-13T00:23:16;17.40;99.90
1568;DHT22;777;47.156;8.326;2023-07-13T00:25:44;17.40;99.90
1568;DHT22;777;47.156;8.326;2023-07-13T00:28:11;17.50;99.90
1568;DHT22;777;47.156;8.326;2023-07-13T00:30:40;17.40;99.90
1568;DHT22;777;47.156;8.326;2023-07-13T00:33:07;17.40;99.90
1568;DHT22;777;47.156;8.326;2023-07-13T00:35:35;17.40;99.90
1568;DHT22;777;47.156;8.326;2023-07-13T00:38:03;17.30;99.90
1568;DHT22;777;47.156;8.326;2023-07-13T00:40:31;17.30;99.90
1568;DHT22;777;47.156;8.326;2023-07-13T00:42:59;17.30;99.90
1568;DHT22;777;47.156;8.326;2023-07-13T00:48:34;17.30;99.90
1568;DHT22;777;47.156;8.326;2023-07-13T00:51:03;17.40;99.90
1568;DHT22;777;47.156;8.326;2023-07-13T00:53:32;17.40;99.90
1568;DHT22;777;47.156;8.326;2023-07-13T00:56:00;17.30;99.90
1568;DHT22;777;47.156;8.326;2023-07-13T00:58:28;17.40;99.90
1568;DHT22;777;47.156;8.326;2023-07-13T01:00:57;17.40;99.90
1568;DHT22;777;47.156;8.326;2023-07-13T01:03:24;17.40;99.90
1568;DHT22;777;47.156;8.326;2023-07-13T01:05:54;17.50;99.90
1568;DHT22;777;47.156;8.326;2023-07-13T01:08:20;17.50;99.90
1568;DHT22;777;47.156;8.326;2023-07-13T01:10:53;17.40;99.90
1568;DHT22;777;47.156;8.326;2023-07-13T01:13:20;17.20;99.90
1568;DHT22;777;47.156;8.326;2023-07-13T01:15:48;17.20;99.90
1568;DHT22;777;47.156;8.326;2023-07-13T01:18:20;17.30;99.90
1568;DHT22;777;47.156;8.326;2023-07-13T01:20:52;17.10;99.90
1568;DHT22;777;47.156;8.326;2023-07-13T01:23:20;17.10;99.90
1568;DHT22;777;47.156;8.326;2023-07-13T01:25:48;17.10;99.90
1568;DHT22;777;47.156;8.326;2023-07-13T01:28:15;17.00;99.90
1568;DHT22;777;47.156;8.326;2023-07-13T01:30:43;16.60;99.90
1568;DHT22;777;47.156;8.326;2023-07-13T01:33:11;16.50;99.90
1568;DHT22;777;47.156;8.326;2023-07-13T01:35:38;16.60;99.90
1568;DHT22;777;47.156;8.326;2023-07-13T01:38:08;16.50;99.90
1568;DHT22;777;47.156;8.326;2023-07-13T01:40:36;16.40;99.90
1568;DHT22;777;47.156;8.326;2023-07-13T01:43:04;16.50;99.90
1568;DHT22;777;47.156;8.326;2023-07-13T01:45:32;16.30;99.90
1568;DHT22;777;47.156;8.326;2023-07-13T01:47:59;16.40;99.90
1568;DHT22;777;47.156;8.326;2023-07-13T01:50:27;16.50;99.90
1568;DHT22;777;47.156;8.326;2023-07-13T01:52:54;16.40;99.90
1568;DHT22;777;47.156;8.326;2023-07-13T01:55:22;16.30;99.90
1568;DHT22;777;47.156;8.326;2023-07-13T01:57:50;16.20;99.90
1568;DHT22;777;47.156;8.326;2023-07-13T02:00:17;16.20;99.90
1568;DHT22;777;47.156;8.326;2023-07-13T02:02:47;16.20;99.90
1568;DHT22;777;47.156;8.326;2023-07-13T02:05:14;16.40;99.90
1568;DHT22;777;47.156;8.326;2023-07-13T02:07:42;16.50;99.90
1568;DHT22;777;47.156;8.326;2023-07-13T02:10:10;16.50;99.90
1568;DHT22;777;47.156;8.326;2023-07-13T02:12:39;16.30;99.90
1568;DHT22;777;47.156;8.326;2023-07-13T02:15:08;16.40;99.90
1568;DHT22;777;47.156;8.326;2023-07-13T02:17:36;16.30;99.90
1568;DHT22;777;47.156;8.326;2023-07-13T02:20:04;16.20;99.90
1568;DHT22;777;47.156;8.326;2023-07-13T02:22:32;16.20;99.90
1568;DHT22;777;47.156;8.326;2023-07-13T02:24:59;16.30;99.90
1568;DHT22;777;47.156;8.326;2023-07-13T02:27:26;16.30;99.90
1568;DHT22;777;47.156;8.326;2023-07-13T02:29:55;16.10;99.90
1568;DHT22;777;47.156;8.326;2023-07-13T02:32:22;16.20;99.90
1568;DHT22;777;47.156;8.326;2023-07-13T02:34:51;16.20;99.90
1568;DHT22;777;47.156;8.326;2023-07-13T02:37:19;16.40;99.90
1568;DHT22;777;47.156;8.326;2023-07-13T02:39:47;16.20;99.90
1568;DHT22;777;47.156;8.326;2023-07-13T02:42:14;16.20;99.90
1568;DHT22;777;47.156;8.326;2023-07-13T02:44:43;16.20;99.90
1568;DHT22;777;47.156;8.326;2023-07-13T02:47:12;16.10;99.90
1568;DHT22;777;47.156;8.326;2023-07-13T02:49:39;16.20;99.90
1568;DHT22;777;47.156;8.326;2023-07-13T02:52:06;16.20;99.90
1568;DHT22;777;47.156;8.326;2023-07-13T02:54:33;16.10;99.90
1568;DHT22;777;47.156;8.326;2023-07-13T02:57:01;16.30;99.90
1568;DHT22;777;47.156;8.326;2023-07-13T02:59:28;16.20;99.90
1568;DHT22;777;47.156;8.326;2023-07-13T03:01:56;16.10;99.90
1568;DHT22;777;47.156;8.326;2023-07-13T03:04:24;16.20;99.90
1568;DHT22;777;47.156;8.326;2023-07-13T03:06:52;16.30;99.90
1568;DHT22;777;47.156;8.326;2023-07-13T03:09:24;16.20;99.90
1568;DHT22;777;47.156;8.326;2023-07-13T03:11:53;16.10;99.90
1568;DHT22;777;47.156;8.326;2023-07-13T03:14:26;16.20;99.90
1568;DHT22;777;47.156;8.326;2023-07-13T03:16:53;16.10;99.90
1568;DHT22;777;47.156;8.326;2023-07-13T03:19:24;16.10;99.90
1568;DHT22;777;47.156;8.326;2023-07-13T03:21:52;16.00;99.90
1568;DHT22;777;47.156;8.326;2023-07-13T03:24:19;16.00;99.90
1568;DHT22;777;47.156;8.326;2023-07-13T03:26:46;16.00;99.90
1568;DHT22;777;47.156;8.326;2023-07-13T03:29:13;16.00;99.90
1568;DHT22;777;47.156;8.326;2023-07-13T03:31:42;15.90;99.90
1568;DHT22;777;47.156;8.326;2023-07-13T03:34:09;16.00;99.90
1568;DHT22;777;47.156;8.326;2023-07-13T03:36:38;15.90;99.90
1568;DHT22;777;47.156;8.326;2023-07-13T03:39:09;15.80;99.90
1568;DHT22;777;47.156;8.326;2023-07-13T03:41:54;15.70;99.90
1568;DHT22;777;47.156;8.326;2023-07-13T03:44:22;15.60;99.90
1568;DHT22;777;47.156;8.326;2023-07-13T03:46:53;15.70;99.90
1568;DHT22;777;47.156;8.326;2023-07-13T03:49:20;15.70;99.90
1568;DHT22;777;47.156;8.326;2023-07-13T03:51:48;15.60;99.90
1568;DHT22;777;47.156;8.326;2023-07-13T03:54:16;15.70;99.90
1568;DHT22;777;47.156;8.326;2023-07-13T03:56:43;15.60;99.90
1568;DHT22;777;47.156;8.326;2023-07-13T03:59:12;15.60;99.90
1568;DHT22;777;47.156;8.326;2023-07-13T04:01:39;15.60;99.90
1568;DHT22;777;47.156;8.326;2023-07-13T04:04:06;15.50;99.90
1568;DHT22;777;47.156;8.326;2023-07-13T04:06:33;15.50;99.90
1568;DHT22;777;47.156;8.326;2023-07-13T04:09:03;15.50;99.90
1568;DHT22;777;47.156;8.326;2023-07-13T04:11:33;15.60;99.90
1568;DHT22;777;47.156;8.326;2023-07-13T04:14:02;15.50;99.90
1568;DHT22;777;47.156;8.326;2023-07-13T04:16:29;15.50;99.90
1568;DHT22;777;47.156;8.326;2023-07-13T04:18:57;15.60;99.90
1568;DHT22;777;47.156;8.326;2023-07-13T04:21:26;15.80;99.90
1568;DHT22;777;47.156;8.326;2023-07-13T04:23:53;15.90;99.90
1568;DHT22;777;47.156;8.326;2023-07-13T04:26:22;15.90;99.90
1568;DHT22;777;47.156;8.326;2023-07-13T04:28:49;16.00;99.90
1568;DHT22;777;47.156;8.326;2023-07-13T04:31:17;16.00;99.90
1568;DHT22;777;47.156;8.326;2023-07-13T04:33:44;16.10;99.90
1568;DHT22;777;47.156;8.326;2023-07-13T04:36:11;16.00;99.90
1568;DHT22;777;47.156;8.326;2023-07-13T04:38:38;16.00;99.90
1568;DHT22;777;47.156;8.326;2023-07-13T04:41:07;16.00;99.90
1568;DHT22;777;47.156;8.326;2023-07-13T04:43:36;16.00;99.90
1568;DHT22;777;47.156;8.326;2023-07-13T04:46:04;16.00;99.90
1568;DHT22;777;47.156;8.326;2023-07-13T04:48:31;16.00;99.90
1568;DHT22;777;47.156;8.326;2023-07-13T04:50:59;15.90;99.90
1568;DHT22;777;47.156;8.326;2023-07-13T04:53:27;16.10;99.90
1568;DHT22;777;47.156;8.326;2023-07-13T04:55:55;16.20;99.90
1568;DHT22;777;47.156;8.326;2023-07-13T04:58:23;16.20;99.90
1568;DHT22;777;47.156;8.326;2023-07-13T05:00:52;16.10;99.90
1568;DHT22;777;47.156;8.326;2023-07-13T05:03:19;16.10;99.90
1568;DHT22;777;47.156;8.326;2023-07-13T05:05:55;16.10;99.90
1568;DHT22;777;47.156;8.326;2023-07-13T05:08:22;16.00;99.90
1568;DHT22;777;47.156;8.326;2023-07-13T05:10:50;16.10;99.90
1568;DHT22;777;47.156;8.326;2023-07-13T05:13:17;16.10;99.90
1568;DHT22;777;47.156;8.326;2023-07-13T05:15:45;16.00;99.90
1568;DHT22;777;47.156;8.326;2023-07-13T05:18:13;16.00;99.90
1568;DHT22;777;47.156;8.326;2023-07-13T05:20:40;16.00;99.90
1568;DHT22;777;47.156;8.326;2023-07-13T05:23:08;16.00;99.90
1568;DHT22;777;47.156;8.326;2023-07-13T05:25:34;15.90;99.90
1568;DHT22;777;47.156;8.326;2023-07-13T05:28:02;15.80;99.90
1568;DHT22;777;47.156;8.326;2023-07-13T05:30:29;15.80;99.90
1568;DHT22;777;47.156;8.326;2023-07-13T05:32:56;15.70;99.90
1568;DHT22;777;47.156;8.326;2023-07-13T05:35:24;15.80;99.90
1568;DHT22;777;47.156;8.326;2023-07-13T05:37:51;15.60;99.90
1568;DHT22;777;47.156;8.326;2023-07-13T05:40:18;15.50;99.90
1568;DHT22;777;47.156;8.326;2023-07-13T05:42:45;15.60;99.90
1568;DHT22;777;47.156;8.326;2023-07-13T05:45:12;15.70;99.90
1568;DHT22;777;47.156;8.326;2023-07-13T05:47:39;15.70;99.90
1568;DHT22;777;47.156;8.326;2023-07-13T05:50:07;15.70;99.90
1568;DHT22;777;47.156;8.326;2023-07-13T05:52:36;15.70;99.90
1568;DHT22;777;47.156;8.326;2023-07-13T05:55:03;15.80;99.90
1568;DHT22;777;47.156;8.326;2023-07-13T05:57:31;15.80;99.90
1568;DHT22;777;47.156;8.326;2023-07-13T05:59:58;15.80;99.90
1568;DHT22;777;47.156;8.326;2023-07-13T06:02:25;15.80;99.90
1568;DHT22;777;47.156;8.326;2023-07-13T06:04:52;15.80;99.90
1568;DHT22;777;47.156;8.326;2023-07-13T06:07:19;15.80;99.90
1568;DHT22;777;47.156;8.326;2023-07-13T06:09:47;15.90;99.90
1568;DHT22;777;47.156;8.326;2023-07-13T06:12:14;15.90;99.90
1568;DHT22;777;47.156;8.326;2023-07-13T06:14:41;15.90;99.90
1568;DHT22;777;47.156;8.326;2023-07-13T06:17:09;15.90;99.90
1568;DHT22;777;47.156;8.326;2023-07-13T06:19:36;15.90;99.90
1568;DHT22;777;47.156;8.326;2023-07-13T06:22:04;15.90;99.90
1568;DHT22;777;47.156;8.326;2023-07-13T06:24:31;15.90;99.90
1568;DHT22;777;47.156;8.326;2023-07-13T06:27:00;16.10;99.90
1568;DHT22;777;47.156;8.326;2023-07-13T06:29:27;16.00;99.90
1568;DHT22;777;47.156;8.326;2023-07-13T06:31:54;16.00;99.90
1568;DHT22;777;47.156;8.326;2023-07-13T06:34:21;16.10;99.90
1568;DHT22;777;47.156;8.326;2023-07-13T06:36:48;16.00;99.90
1568;DHT22;777;47.156;8.326;2023-07-13T06:39:15;16.10;99.90
1568;DHT22;777;47.156;8.326;2023-07-13T06:41:42;16.20;99.90
1568;DHT22;777;47.156;8.326;2023-07-13T06:44:14;16.30;99.90
1568;DHT22;777;47.156;8.326;2023-07-13T06:46:41;16.40;99.90
1568;DHT22;777;47.156;8.326;2023-07-13T06:49:08;16.50;99.90
1568;DHT22;777;47.156;8.326;2023-07-13T06:51:36;16.60;99.90
1568;DHT22;777;47.156;8.326;2023-07-13T06:54:03;16.70;99.90
1568;DHT22;777;47.156;8.326;2023-07-13T06:56:30;16.70;99.90
1568;DHT22;777;47.156;8.326;2023-07-13T06:58:57;16.60;99.90
1568;DHT22;777;47.156;8.326;2023-07-13T07:01:26;16.80;99.90
1568;DHT22;777;47.156;8.326;2023-07-13T07:03:53;16.90;99.90
1568;DHT22;777;47.156;8.326;2023-07-13T07:06:21;17.10;99.90
1568;DHT22;777;47.156;8.326;2023-07-13T07:08:49;17.30;99.90
1568;DHT22;777;47.156;8.326;2023-07-13T07:11:18;17.30;99.90
1568;DHT22;777;47.156;8.326;2023-07-13T07:13:46;17.30;99.90
1568;DHT22;777;47.156;8.326;2023-07-13T07:16:13;17.40;99.90
1568;DHT22;777;47.156;8.326;2023-07-13T07:18:41;17.20;99.90
1568;DHT22;777;47.156;8.326;2023-07-13T07:21:08;17.30;99.90
1568;DHT22;777;47.156;8.326;2023-07-13T07:23:35;17.40;99.90
1568;DHT22;777;47.156;8.326;2023-07-13T07:26:02;17.50;99.90
1568;DHT22;777;47.156;8.326;2023-07-13T07:28:29;17.70;99.90
1568;DHT22;777;47.156;8.326;2023-07-13T07:30:58;17.70;99.90
1568;DHT22;777;47.156;8.326;2023-07-13T07:33:25;17.60;99.90
1568;DHT22;777;47.156;8.326;2023-07-13T07:35:55;17.30;99.90
1568;DHT22;777;47.156;8.326;2023-07-13T07:38:22;17.10;99.90
1568;DHT22;777;47.156;8.326;2023-07-13T07:40:49;17.30;99.90
1568;DHT22;777;47.156;8.326;2023-07-13T07:43:15;17.60;99.90
1568;DHT22;777;47.156;8.326;2023-07-13T07:45:44;17.60;99.90
1568;DHT22;777;47.156;8.326;2023-07-13T07:48:11;17.50;99.90
1568;DHT22;777;47.156;8.326;2023-07-13T07:50:38;17.50;99.90
1568;DHT22;777;47.156;8.326;2023-07-13T07:53:07;17.60;99.90
1568;DHT22;777;47.156;8.326;2023-07-13T07:55:36;17.50;99.90
1568;DHT22;777;47.156;8.326;2023-07-13T07:58:04;17.50;99.90
1568;DHT22;777;47.156;8.326;2023-07-13T08:00:31;17.60;99.90
1568;DHT22;777;47.156;8.326;2023-07-13T08:02:58;17.40;99.90
1568;DHT22;777;47.156;8.326;2023-07-13T08:05:26;17.60;99.90
1568;DHT22;777;47.156;8.326;2023-07-13T08:07:53;17.70;99.90
1568;DHT22;777;47.156;8.326;2023-07-13T08:10:21;17.80;99.90
1568;DHT22;777;47.156;8.326;2023-07-13T08:12:48;17.90;99.90
1568;DHT22;777;47.156;8.326;2023-07-13T08:15:16;18.00;99.90
1568;DHT22;777;47.156;8.326;2023-07-13T08:17:46;18.00;99.90
1568;DHT22;777;47.156;8.326;2023-07-13T08:20:14;17.90;99.90
1568;DHT22;777;47.156;8.326;2023-07-13T08:22:41;17.80;99.90
1568;DHT22;777;47.156;8.326;2023-07-13T08:25:08;17.90;99.90
1568;DHT22;777;47.156;8.326;2023-07-13T08:27:36;17.80;99.90
1568;DHT22;777;47.156;8.326;2023-07-13T08:30:05;17.80;99.90
1568;DHT22;777;47.156;8.326;2023-07-13T08:32:33;18.00;99.90
1568;DHT22;777;47.156;8.326;2023-07-13T08:35:00;18.00;99.90
1568;DHT22;777;47.156;8.326;2023-07-13T08:37:27;18.10;99.90
1568;DHT22;777;47.156;8.326;2023-07-13T08:39:54;18.10;99.90
1568;DHT22;777;47.156;8.326;2023-07-13T08:42:33;18.20;99.90
1568;DHT22;777;47.156;8.326;2023-07-13T08:45:18;18.30;99.90
1568;DHT22;777;47.156;8.326;2023-07-13T08:47:48;18.50;99.90
1568;DHT22;777;47.156;8.326;2023-07-13T08:50:19;18.70;99.90
1568;DHT22;777;47.156;8.326;2023-07-13T08:52:47;18.40;99.90
1568;DHT22;777;47.156;8.326;2023-07-13T08:55:17;18.00;99.90
1568;DHT22;777;47.156;8.326;2023-07-13T08:57:48;18.40;99.90
1568;DHT22;777;47.156;8.326;2023-07-13T09:00:19;18.40;99.90
1568;DHT22;777;47.156;8.326;2023-07-13T09:02:52;18.00;99.90
1568;DHT22;777;47.156;8.326;2023-07-13T09:05:26;18.00;99.90
1568;DHT22;777;47.156;8.326;2023-07-13T09:08:26;17.90;99.90
1568;DHT22;777;47.156;8.326;2023-07-13T09:11:03;17.70;99.90
1568;DHT22;777;47.156;8.326;2023-07-13T09:13:39;17.70;99.90
1568;DHT22;777;47.156;8.326;2023-07-13T09:16:11;17.60;99.90
1568;DHT22;777;47.156;8.326;2023-07-13T09:18:42;17.90;99.90
1568;DHT22;777;47.156;8.326;2023-07-13T09:21:13;18.00;99.90
1568;DHT22;777;47.156;8.326;2023-07-13T09:23:41;18.20;99.90
1568;DHT22;777;47.156;8.326;2023-07-13T09:26:16;18.10;99.90
1568;DHT22;777;47.156;8.326;2023-07-13T09:28:45;17.80;99.90
1568;DHT22;777;47.156;8.326;2023-07-13T09:31:17;18.00;99.90
1568;DHT22;777;47.156;8.326;2023-07-13T09:33:46;17.80;99.90
1568;DHT22;777;47.156;8.326;2023-07-13T09:36:19;17.70;99.90
1568;DHT22;777;47.156;8.326;2023-07-13T09:38:47;18.00;99.90
1568;DHT22;777;47.156;8.326;2023-07-13T09:41:21;18.10;99.90
1568;DHT22;777;47.156;8.326;2023-07-13T09:44:08;18.10;99.90
1568;DHT22;777;47.156;8.326;2023-07-13T09:46:39;18.20;99.90
1568;DHT22;777;47.156;8.326;2023-07-13T09:49:10;18.30;99.90
1568;DHT22;777;47.156;8.326;2023-07-13T09:51:37;18.40;99.90
1568;DHT22;777;47.156;8.326;2023-07-13T09:54:05;18.40;99.90
1568;DHT22;777;47.156;8.326;2023-07-13T09:56:32;18.30;99.90
1568;DHT22;777;47.156;8.326;2023-07-13T09:58:59;18.20;99.90
1568;DHT22;777;47.156;8.326;2023-07-13T10:01:34;18.30;99.90
1568;DHT22;777;47.156;8.326;2023-07-13T10:04:11;18.70;99.90
1568;DHT22;777;47.156;8.326;2023-07-13T10:06:40;18.40;99.90
1568;DHT22;777;47.156;8.326;2023-07-13T10:09:08;18.40;99.90
1568;DHT22;777;47.156;8.326;2023-07-13T10:11:36;18.80;99.90
1568;DHT22;777;47.156;8.326;2023-07-13T10:14:11;18.70;99.90
1568;DHT22;777;47.156;8.326;2023-07-13T10:16:41;18.80;99.90
1568;DHT22;777;47.156;8.326;2023-07-13T10:19:15;18.90;99.90
1568;DHT22;777;47.156;8.326;2023-07-13T10:21:50;18.90;99.90
1568;DHT22;777;47.156;8.326;2023-07-13T10:24:22;19.00;99.90
1568;DHT22;777;47.156;8.326;2023-07-13T10:26:55;18.90;99.90
1568;DHT22;777;47.156;8.326;2023-07-13T10:29:26;18.80;99.90
1568;DHT22;777;47.156;8.326;2023-07-13T10:31:55;19.20;99.90
1568;DHT22;777;47.156;8.326;2023-07-13T10:34:25;19.10;99.90
1568;DHT22;777;47.156;8.326;2023-07-13T10:36:52;19.20;99.90
1568;DHT22;777;47.156;8.326;2023-07-13T10:39:21;19.40;99.90
1568;DHT22;777;47.156;8.326;2023-07-13T10:41:53;19.50;99.90
1568;DHT22;777;47.156;8.326;2023-07-13T10:44:24;19.90;99.90
1568;DHT22;777;47.156;8.326;2023-07-13T10:46:56;20.50;99.90
1568;DHT22;777;47.156;8.326;2023-07-13T10:49:27;21.00;99.90
1568;DHT22;777;47.156;8.326;2023-07-13T10:51:57;21.00;99.90
1568;DHT22;777;47.156;8.326;2023-07-13T10:54:30;20.40;99.90
1568;DHT22;777;47.156;8.326;2023-07-13T10:57:16;20.90;99.90
1568;DHT22;777;47.156;8.326;2023-07-13T10:59:47;21.20;99.90
1568;DHT22;777;47.156;8.326;2023-07-13T11:02:22;22.30;99.90
1568;DHT22;777;47.156;8.326;2023-07-13T11:04:53;21.70;99.90
1568;DHT22;777;47.156;8.326;2023-07-13T11:07:21;20.50;99.90
1568;DHT22;777;47.156;8.326;2023-07-13T11:09:52;20.30;99.90
1568;DHT22;777;47.156;8.326;2023-07-13T11:15:12;21.00;99.90
1568;DHT22;777;47.156;8.326;2023-07-13T11:17:48;21.20;99.90
1568;DHT22;777;47.156;8.326;2023-07-13T11:20:38;22.00;99.90
1568;DHT22;777;47.156;8.326;2023-07-13T11:23:26;21.90;99.90
1568;DHT22;777;47.156;8.326;2023-07-13T11:25:54;21.10;99.90
1568;DHT22;777;47.156;8.326;2023-07-13T11:28:25;21.70;99.90
1568;DHT22;777;47.156;8.326;2023-07-13T11:31:14;21.10;99.90
1568;DHT22;777;47.156;8.326;2023-07-13T11:34:00;22.10;99.90
1568;DHT22;777;47.156;8.326;2023-07-13T11:36:39;21.30;99.90
1568;DHT22;777;47.156;8.326;2023-07-13T11:39:16;20.70;99.90
1568;DHT22;777;47.156;8.326;2023-07-13T11:41:49;21.60;99.90
1568;DHT22;777;47.156;8.326;2023-07-13T11:44:20;22.00;99.90
1568;DHT22;777;47.156;8.326;2023-07-13T11:46:50;21.10;99.90
1568;DHT22;777;47.156;8.326;2023-07-13T11:49:19;21.90;99.90
1568;DHT22;777;47.156;8.326;2023-07-13T11:51:48;22.80;99.90
1568;DHT22;777;47.156;8.326;2023-07-13T11:54:23;23.40;99.90
1568;DHT22;777;47.156;8.326;2023-07-13T11:56:52;22.10;99.90
1568;DHT22;777;47.156;8.326;2023-07-13T11:59:19;22.10;99.90
1568;DHT22;777;47.156;8.326;2023-07-13T12:01:50;22.80;99.90
1568;DHT22;777;47.156;8.326;2023-07-13T12:04:22;22.30;99.90
1568;DHT22;777;47.156;8.326;2023-07-13T12:06:57;22.70;99.90
1568;DHT22;777;47.156;8.326;2023-07-13T12:09:27;23.20;99.90
1568;DHT22;777;47.156;8.326;2023-07-13T12:11:57;23.40;99.90
1568;DHT22;777;47.156;8.326;2023-07-13T12:14:25;23.30;99.90
1568;DHT22;777;47.156;8.326;2023-07-13T12:16:53;22.50;99.90
1568;DHT22;777;47.156;8.326;2023-07-13T12:19:22;23.10;99.90
1568;DHT22;777;47.156;8.326;2023-07-13T12:21:52;23.40;99.90
1568;DHT22;777;47.156;8.326;2023-07-13T12:24:22;23.80;99.90
1568;DHT22;777;47.156;8.326;2023-07-13T12:26:53;24.00;99.90
1568;DHT22;777;47.156;8.326;2023-07-13T12:29:21;23.70;99.90
1568;DHT22;777;47.156;8.326;2023-07-13T12:31:49;24.20;99.90
1568;DHT22;777;47.156;8.326;2023-07-13T12:34:19;25.30;99.90
1568;DHT22;777;47.156;8.326;2023-07-13T12:36:48;26.50;99.90
1568;DHT22;777;47.156;8.326;2023-07-13T12:39:18;24.90;99.90
1568;DHT22;777;47.156;8.326;2023-07-13T12:41:48;26.20;99.90
1568;DHT22;777;47.156;8.326;2023-07-13T12:44:17;25.90;99.90
1568;DHT22;777;47.156;8.326;2023-07-13T12:46:56;24.80;99.90
1568;DHT22;777;47.156;8.326;2023-07-13T12:49:27;24.70;99.90
1568;DHT22;777;47.156;8.326;2023-07-13T12:52:00;24.80;99.90
1568;DHT22;777;47.156;8.326;2023-07-13T12:54:29;24.50;99.90
1568;DHT22;777;47.156;8.326;2023-07-13T12:56:59;24.10;99.90
1568;DHT22;777;47.156;8.326;2023-07-13T12:59:31;24.00;99.90
1568;DHT22;777;47.156;8.326;2023-07-13T13:02:19;24.10;99.90
1568;DHT22;777;47.156;8.326;2023-07-13T13:04:49;25.00;99.90
1568;DHT22;777;47.156;8.326;2023-07-13T13:07:16;24.70;99.90
1568;DHT22;777;47.156;8.326;2023-07-13T13:09:43;24.40;99.90
1568;DHT22;777;47.156;8.326;2023-07-13T13:12:11;25.40;99.90
1568;DHT22;777;47.156;8.326;2023-07-13T13:14:38;24.90;99.90
1568;DHT22;777;47.156;8.326;2023-07-13T13:17:17;26.00;99.90
1568;DHT22;777;47.156;8.326;2023-07-13T13:19:46;26.00;99.90
1568;DHT22;777;47.156;8.326;2023-07-13T13:24:41;28.70;99.90
1568;DHT22;777;47.156;8.326;2023-07-13T13:27:18;25.30;99.90
1568;DHT22;777;47.156;8.326;2023-07-13T13:29:46;24.80;99.90
1568;DHT22;777;47.156;8.326;2023-07-13T13:32:14;23.80;99.90
1568;DHT22;777;47.156;8.326;2023-07-13T13:34:41;23.70;99.90
1568;DHT22;777;47.156;8.326;2023-07-13T13:37:17;24.40;99.90
1568;DHT22;777;47.156;8.326;2023-07-13T13:39:44;25.30;99.90
1568;DHT22;777;47.156;8.326;2023-07-13T13:42:13;25.50;99.90
1568;DHT22;777;47.156;8.326;2023-07-13T13:44:41;25.90;99.90
1568;DHT22;777;47.156;8.326;2023-07-13T13:47:21;25.50;99.90
1568;DHT22;777;47.156;8.326;2023-07-13T13:49:52;25.80;99.90
1568;DHT22;777;47.156;8.326;2023-07-13T13:52:19;24.40;99.90
1568;DHT22;777;47.156;8.326;2023-07-13T13:54:46;24.40;99.90
1568;DHT22;777;47.156;8.326;2023-07-13T13:57:14;23.80;99.90
1568;DHT22;777;47.156;8.326;2023-07-13T13:59:42;25.50;99.90
1568;DHT22;777;47.156;8.326;2023-07-13T14:02:21;24.60;99.90
1568;DHT22;777;47.156;8.326;2023-07-13T14:04:51;24.80;99.90
1568;DHT22;777;47.156;8.326;2023-07-13T14:07:19;24.50;99.90
1568;DHT22;777;47.156;8.326;2023-07-13T14:09:46;24.10;99.90
1568;DHT22;777;47.156;8.326;2023-07-13T14:12:13;24.10;99.90
1568;DHT22;777;47.156;8.326;2023-07-13T14:14:42;23.40;99.90
1568;DHT22;777;47.156;8.326;2023-07-13T14:17:18;23.30;99.90
1568;DHT22;777;47.156;8.326;2023-07-13T14:19:47;24.00;99.90
1568;DHT22;777;47.156;8.326;2023-07-13T14:22:17;23.40;99.90
1568;DHT22;777;47.156;8.326;2023-07-13T14:24:44;24.40;99.90
1568;DHT22;777;47.156;8.326;2023-07-13T14:27:12;23.60;99.90
1568;DHT22;777;47.156;8.326;2023-07-13T14:29:39;25.50;99.90
1568;DHT22;777;47.156;8.326;2023-07-13T14:32:10;26.80;99.90
1568;DHT22;777;47.156;8.326;2023-07-13T14:34:37;26.30;99.90
1568;DHT22;777;47.156;8.326;2023-07-13T14:37:05;25.70;99.90
1568;DHT22;777;47.156;8.326;2023-07-13T14:39:32;24.60;99.90
1568;DHT22;777;47.156;8.326;2023-07-13T14:41:59;24.00;99.90
1568;DHT22;777;47.156;8.326;2023-07-13T14:44:28;25.00;99.90
1568;DHT22;777;47.156;8.326;2023-07-13T14:46:57;25.50;99.90
1568;DHT22;777;47.156;8.326;2023-07-13T14:49:27;24.80;99.90
1568;DHT22;777;47.156;8.326;2023-07-13T14:51:57;25.50;99.90
1568;DHT22;777;47.156;8.326;2023-07-13T14:54:24;26.70;99.90
1568;DHT22;777;47.156;8.326;2023-07-13T14:56:52;26.60;99.90
1568;DHT22;777;47.156;8.326;2023-07-13T14:59:19;24.70;99.90
1568;DHT22;777;47.156;8.326;2023-07-13T15:01:47;25.60;99.90
1568;DHT22;777;47.156;8.326;2023-07-13T15:04:15;20.50;99.90
1568;DHT22;777;47.156;8.326;2023-07-13T15:06:55;25.00;99.90
1568;DHT22;777;47.156;8.326;2023-07-13T15:09:23;24.40;99.90
1568;DHT22;777;47.156;8.326;2023-07-13T15:11:52;23.80;99.90
1568;DHT22;777;47.156;8.326;2023-07-13T15:14:19;23.90;99.90
1568;DHT22;777;47.156;8.326;2023-07-13T15:16:47;23.90;99.90
1568;DHT22;777;47.156;8.326;2023-07-13T15:19:16;24.10;99.90
1568;DHT22;777;47.156;8.326;2023-07-13T15:21:44;24.20;99.90
1568;DHT22;777;47.156;8.326;2023-07-13T15:24:12;24.30;99.90
1568;DHT22;777;47.156;8.326;2023-07-13T15:26:41;24.30;99.90
1568;DHT22;777;47.156;8.326;2023-07-13T15:29:11;24.40;99.90
1568;DHT22;777;47.156;8.326;2023-07-13T15:31:38;24.70;99.90
1568;DHT22;777;47.156;8.326;2023-07-13T15:34:11;25.60;99.90
1568;DHT22;777;47.156;8.326;2023-07-13T15:36:39;26.40;99.90
1568;DHT22;777;47.156;8.326;2023-07-13T15:39:06;25.30;99.90
1568;DHT22;777;47.156;8.326;2023-07-13T15:41:35;24.10;99.90
1568;DHT22;777;47.156;8.326;2023-07-13T15:44:23;23.80;99.90
1568;DHT22;777;47.156;8.326;2023-07-13T15:46:51;23.40;99.90
1568;DHT22;777;47.156;8.326;2023-07-13T15:49:18;23.60;99.90
1568;DHT22;777;47.156;8.326;2023-07-13T15:51:45;23.50;99.90
1568;DHT22;777;47.156;8.326;2023-07-13T15:54:15;23.20;99.90
1568;DHT22;777;47.156;8.326;2023-07-13T15:56:49;23.10;99.90
1568;DHT22;777;47.156;8.326;2023-07-13T15:59:18;23.10;99.90
1568;DHT22;777;47.156;8.326;2023-07-13T16:01:45;23.20;99.90
1568;DHT22;777;47.156;8.326;2023-07-13T16:04:15;23.50;99.90
1568;DHT22;777;47.156;8.326;2023-07-13T16:06:43;23.60;99.90
1568;DHT22;777;47.156;8.326;2023-07-13T16:09:17;24.50;99.90
1568;DHT22;777;47.156;8.326;2023-07-13T16:11:46;24.20;99.90
1568;DHT22;777;47.156;8.326;2023-07-13T16:14:15;23.70;99.90
1568;DHT22;777;47.156;8.326;2023-07-13T16:16:42;23.30;99.90
1568;DHT22;777;47.156;8.326;2023-07-13T16:19:10;23.00;99.90
1568;DHT22;777;47.156;8.326;2023-07-13T16:21:44;23.00;99.90
1568;DHT22;777;47.156;8.326;2023-07-13T16:24:17;22.90;99.90
1568;DHT22;777;47.156;8.326;2023-07-13T16:26:48;23.10;99.90
1568;DHT22;777;47.156;8.326;2023-07-13T16:29:17;23.10;99.90
1568;DHT22;777;47.156;8.326;2023-07-13T16:31:55;23.00;99.90
1568;DHT22;777;47.156;8.326;2023-07-13T16:34:23;22.80;99.90
1568;DHT22;777;47.156;8.326;2023-07-13T16:36:51;22.80;99.90
1568;DHT22;777;47.156;8.326;2023-07-13T16:39:20;23.00;99.90